Hauptseite
METAR-TAF:

METAR-TAF

Flughäfen :

Flugplatz Laval-Entrammes

Laval, Frankreich

Breite: 48-01-56N, Länge: 000-44-34W, Höhe: 101 m

Beobachtung

Neuester Wetterbericht von vor 29 Minuten, um 04:00 UTC
Windstille
Temperatur 5°C
Luftfeuchtigkeit 100%
Luftdruck 1008 hPa
Sichtweite: 5000 m
Durchbrochene Bewölkung in der Höhe von 500 ft
Geschlossene Wolkendecke in der Höhe von 3500 ft
feuchter Dunst

METAR: LFOV 170400Z AUTO 00000KT 5000 BR BKN005 OVC035 05/05 Q1008

Zeit: 05:29 (04:29 UTC)


TAF: fehlend

Wetterbeobachtungen und Prognosen von mehr als 4000 Flughäfen (METAR und TAF Bericht).

Die verfügbaren Stationen werden durch gelbe und rote Markierungen auf der Karte dargestellt.

Führen Sie die Maus auf sie, um den Namen der Station zu sehen.

Darauf klicken, um die Beobachtung von Wetterbeobachtungen und Prognosen zu sehen.

Um die Karte zu ändern : klicken Sie auf den grünen Tasten mit einem schwarzen Kreuz Zum Vergrößern, auf den grünen Button mit einem Gedankenstrich zu verkleinern, oder auf die grünen Pfeile für benachbarte Karten.


METAR-TAF: